»·PEaware :: SWA21 KLAX-KLAS

SWA21 :: KLAX-KLAS

FLIGHT INFORMATION

Flight Status: Arrived
Operator:
Southwest Airlines
More flights by this operator :: More flights under this callsign
Pilot: Ben F. (13029)
Aircraft: BOEING 737-200
(B732)
More flights by this aircraft type
Origin: KLAX Los Angeles Intl
United States
Destination: KLAS McCarran Intl
United States
More flights between these airports :: More routes between these airports
Route: +SEBBY3 DAG CLARR CLARR3
File this flight plan on PilotEdge
Remarks:
Altitude:
(Current/Filed)
24,000ft
Speed:
(Current/Filed)
415kts
Departed: 04-Aug-18 04:47 PM
Arrived: 04-Aug-18 05:36 PM
Distance/Time
Traveled:
205nm/0:49
Distance/Time
To Go:
Arrived

Flight Plot

Page will automatically refresh every two minutes.

Flight plan parsing failed; only flown route is shown


Map Options




Map Legend


Flown Route
Filed Route
Departure Airport
Arrival Airport
Navaid (VOR, NDB)
Fix

Horizontal Profiles

Position Reports

Time Latitude Longitude Heading Altitude Ground
Speed
04-Aug-18 16:30 33.933831 -118.389001 173 112ft 0kts
04-Aug-18 16:31 33.933831 -118.389001 173 112ft 0kts
04-Aug-18 16:32 33.933831 -118.389001 173 112ft 0kts
04-Aug-18 16:33 33.933831 -118.389001 173 112ft 0kts
04-Aug-18 16:34 33.934077 -118.389034 174 112ft 2kts
04-Aug-18 16:35 33.934205 -118.389051 173 112ft 0kts
04-Aug-18 16:36 33.934205 -118.389051 173 112ft 0kts
04-Aug-18 16:37 33.934205 -118.389051 173 112ft 0kts
04-Aug-18 16:38 33.934205 -118.389051 173 112ft 0kts
04-Aug-18 16:39 33.934205 -118.389051 173 112ft 0kts
04-Aug-18 16:40 33.934206 -118.389051 173 112ft 0kts
04-Aug-18 16:41 33.934562 -118.389497 92 112ft 2kts
04-Aug-18 16:42 33.934543 -118.389705 83 112ft 0kts
04-Aug-18 16:43 33.934543 -118.389705 83 112ft 0kts
04-Aug-18 16:44 33.934543 -118.389704 83 112ft 0kts
04-Aug-18 16:45 33.934702 -118.389517 6 112ft 8kts
04-Aug-18 16:46 33.936312 -118.382874 32 112ft 10kts
04-Aug-18 16:47 33.936825 -118.382814 354 112ft 13kts
04-Aug-18 16:48 33.934484 -118.409746 261 338ft 167kts
04-Aug-18 16:49 33.917751 -118.482069 233 3953ft 260kts
04-Aug-18 16:50 33.868778 -118.557923 233 4906ft 302kts
04-Aug-18 16:51 33.820464 -118.631623 230 8299ft 277kts
04-Aug-18 16:52 33.749812 -118.625967 126 11675ft 307kts
04-Aug-18 16:53 33.761842 -118.531604 52 14635ft 318kts
04-Aug-18 16:54 33.818396 -118.439710 52 14906ft 359kts
04-Aug-18 16:55 33.878055 -118.343067 51 14899ft 362kts
04-Aug-18 16:56 33.938218 -118.245607 51 14896ft 364kts
04-Aug-18 16:57 33.998651 -118.147688 51 15009ft 361kts
04-Aug-18 16:58 34.058465 -118.050603 51 15074ft 361kts
04-Aug-18 16:59 34.116851 -117.955540 51 16456ft 340kts
04-Aug-18 17:00 34.172690 -117.863404 51 18647ft 348kts
04-Aug-18 17:01 34.230320 -117.767766 51 20350ft 358kts
04-Aug-18 17:02 34.282973 -117.664426 58 21891ft 369kts
04-Aug-18 17:03 34.330627 -117.554162 49 23315ft 374kts
04-Aug-18 17:04 34.396398 -117.452970 48 23983ft 401kts
04-Aug-18 17:05 34.468547 -117.342752 50 23975ft 429kts
04-Aug-18 17:06 34.541951 -117.228515 49 23964ft 429kts
04-Aug-18 17:07 34.615510 -117.115379 49 23971ft 428kts
04-Aug-18 17:08 34.689313 -117.001816 49 23920ft 427kts
04-Aug-18 17:09 34.762620 -116.888661 50 23862ft 426kts
04-Aug-18 17:10 34.835538 -116.775703 50 23853ft 424kts
04-Aug-18 17:11 34.908174 -116.662839 50 23851ft 423kts
04-Aug-18 17:12 34.976451 -116.556347 50 23041ft 385kts
04-Aug-18 17:13 35.045547 -116.456959 43 20890ft 382kts
04-Aug-18 17:14 35.119417 -116.367673 43 19118ft 370kts
04-Aug-18 17:15 35.191840 -116.281812 43 17331ft 359kts
04-Aug-18 17:16 35.261487 -116.196890 45 15583ft 348kts
04-Aug-18 17:17 35.327232 -116.113717 46 13268ft 339kts
04-Aug-18 17:18 35.390436 -116.031448 46 13105ft 332kts
04-Aug-18 17:19 35.455045 -115.950599 45 13098ft 331kts
04-Aug-18 17:20 35.519648 -115.869756 45 13099ft 333kts
04-Aug-18 17:21 35.584031 -115.789024 45 13086ft 329kts
04-Aug-18 17:22 35.647766 -115.708903 45 13082ft 329kts
04-Aug-18 17:23 35.712174 -115.627603 45 13074ft 331kts
04-Aug-18 17:24 35.778050 -115.549744 24 13067ft 328kts
04-Aug-18 17:25 35.867660 -115.543446 356 12923ft 323kts
04-Aug-18 17:26 35.956561 -115.546205 356 10446ft 317kts
04-Aug-18 17:27 36.043654 -115.537557 32 10047ft 323kts
04-Aug-18 17:28 36.062440 -115.441724 109 10039ft 304kts
04-Aug-18 17:29 36.035948 -115.344352 107 10031ft 300kts
04-Aug-18 17:30 36.021914 -115.243609 97 10048ft 299kts
04-Aug-18 17:31 36.016013 -115.157909 97 8872ft 309kts
04-Aug-18 17:32 36.009676 -115.044209 90 7765ft 261kts
04-Aug-18 17:33 36.038910 -114.975324 353 6518ft 260kts
04-Aug-18 17:34 36.071595 -115.026512 282 4523ft 198kts
04-Aug-18 17:35 36.073637 -115.078245 264 2881ft 149kts
04-Aug-18 17:36 36.073606 -115.132609 269 2120ft 105kts
04-Aug-18 17:37 36.074505 -115.139167 58 2120ft 0kts

Navigation Log

Ident Type
Flight plan parsing failed, navigation log unavailable